createdAt,value
2019-03-10T00:00:01.309Z,63.70
2019-03-10T00:02:31.998Z,64.20
2019-03-10T00:05:02.380Z,64.30
2019-03-10T00:07:33.019Z,63.40
2019-03-10T00:10:05.887Z,63.90
2019-03-10T00:12:36.540Z,64.00
2019-03-10T00:15:10.848Z,63.50
2019-03-10T00:17:42.015Z,64.70
2019-03-10T00:20:12.599Z,63.90
2019-03-10T00:22:42.945Z,64.70
2019-03-10T00:25:13.600Z,65.50
2019-03-10T00:27:43.924Z,64.80
2019-03-10T00:30:18.291Z,65.90
2019-03-10T00:32:49.022Z,66.90
2019-03-10T00:35:19.724Z,66.80
2019-03-10T00:37:50.334Z,65.90
2019-03-10T00:40:51.323Z,66.80
2019-03-10T00:43:49.496Z,66.90
2019-03-10T00:46:56.569Z,66.90
2019-03-10T00:50:08.911Z,66.80
2019-03-10T00:52:44.308Z,66.80
2019-03-10T00:55:15.294Z,66.90
2019-03-10T00:57:46.110Z,67.00
2019-03-10T01:00:18.616Z,67.00
2019-03-10T01:02:48.961Z,66.90
2019-03-10T01:05:19.343Z,66.80
2019-03-10T01:08:09.559Z,67.20
2019-03-10T01:10:41.532Z,67.10
2019-03-10T01:13:12.379Z,67.60
2019-03-10T01:15:43.092Z,66.80
2019-03-10T01:18:13.504Z,68.20
2019-03-10T01:20:43.822Z,68.80
2019-03-10T01:23:14.467Z,68.80
2019-03-10T01:25:44.975Z,69.70
2019-03-10T01:28:15.623Z,70.00
2019-03-10T01:31:11.558Z,71.00
2019-03-10T01:34:08.278Z,70.70
2019-03-10T01:36:38.827Z,70.50
2019-03-10T01:39:10.257Z,71.50
2019-03-10T01:41:40.600Z,71.90
2019-03-10T01:44:11.337Z,72.20
2019-03-10T01:46:41.963Z,71.50
2019-03-10T01:49:12.719Z,72.00
2019-03-10T01:51:43.383Z,72.30
2019-03-10T01:54:13.971Z,72.50
2019-03-10T01:56:44.354Z,72.80
2019-03-10T01:59:15.048Z,72.50
2019-03-10T02:01:45.441Z,72.00
2019-03-10T02:04:15.707Z,72.20
2019-03-10T02:06:46.840Z,71.90
2019-03-10T02:09:17.452Z,72.30
2019-03-10T02:11:47.770Z,71.50
2019-03-10T02:14:18.460Z,71.50
2019-03-10T02:16:48.870Z,72.10
2019-03-10T02:19:19.504Z,72.00
2019-03-10T02:21:50.271Z,72.00
2019-03-10T02:24:24.066Z,72.50
2019-03-10T02:26:52.631Z,73.90
2019-03-10T02:29:23.655Z,74.50
2019-03-10T02:31:54.343Z,73.80
2019-03-10T02:34:25.039Z,74.40
2019-03-10T02:36:55.617Z,75.10
2019-03-10T02:39:25.939Z,75.00
2019-03-10T02:41:56.428Z,74.50
2019-03-10T02:44:27.463Z,75.10
2019-03-10T02:46:57.787Z,75.30
2019-03-10T02:49:28.111Z,75.70
2019-03-10T02:51:58.513Z,75.70
2019-03-10T02:54:28.863Z,75.60
2019-03-10T02:56:59.580Z,75.60
2019-03-10T02:59:29.964Z,76.90
2019-03-10T03:02:00.431Z,75.60
2019-03-10T03:04:31.141Z,76.30
2019-03-10T03:07:02.004Z,76.00
2019-03-10T03:09:32.324Z,75.60
2019-03-10T03:12:02.676Z,75.50
2019-03-10T03:14:33.413Z,76.10
2019-03-10T03:17:03.998Z,75.50
2019-03-10T03:19:34.336Z,75.50
2019-03-10T03:22:05.280Z,76.10
2019-03-10T03:24:35.600Z,75.50
2019-03-10T03:27:06.285Z,74.90
2019-03-10T03:29:37.246Z,75.70
2019-03-10T03:32:07.593Z,75.60
2019-03-10T03:34:37.960Z,75.60
2019-03-10T03:37:09.312Z,75.60
2019-03-10T03:39:39.733Z,75.60
2019-03-10T03:42:10.054Z,76.20
2019-03-10T03:44:41.305Z,76.00
2019-03-10T03:47:11.720Z,75.80
2019-03-10T03:49:42.409Z,76.50
2019-03-10T03:52:13.144Z,75.80
2019-03-10T03:54:43.489Z,75.90
2019-03-10T03:57:14.119Z,76.10
2019-03-10T03:59:45.052Z,75.80
2019-03-10T04:02:17.137Z,77.10
2019-03-10T04:04:47.484Z,78.70
2019-03-10T04:07:18.532Z,79.00
2019-03-10T04:09:48.954Z,80.60
2019-03-10T04:12:19.272Z,81.60
2019-03-10T04:14:50.033Z,82.10
2019-03-10T04:17:20.350Z,82.70
2019-03-10T04:19:51.183Z,82.70
2019-03-10T04:22:21.891Z,83.30
2019-03-10T04:24:52.206Z,84.70
2019-03-10T04:27:22.522Z,84.70
2019-03-10T04:29:52.860Z,84.80
2019-03-10T04:32:23.569Z,84.90
2019-03-10T04:34:54.645Z,84.70
2019-03-10T04:37:25.025Z,86.20
2019-03-10T04:39:55.736Z,85.60
2019-03-10T04:42:26.114Z,86.30
2019-03-10T04:44:56.766Z,85.60
2019-03-10T04:47:27.386Z,84.90
2019-03-10T04:49:57.732Z,85.60
2019-03-10T04:52:28.458Z,86.30
2019-03-10T04:55:00.445Z,85.00
2019-03-10T04:57:30.897Z,86.60
2019-03-10T05:00:01.589Z,87.40
2019-03-10T05:02:32.931Z,87.30
2019-03-10T05:05:03.581Z,87.40
2019-03-10T05:07:34.814Z,87.10
2019-03-10T05:10:06.381Z,87.60
2019-03-10T05:12:37.054Z,88.80
2019-03-10T05:15:07.487Z,89.30
2019-03-10T05:17:37.823Z,89.00
2019-03-10T05:20:08.445Z,89.20
2019-03-10T05:22:39.181Z,89.50
2019-03-10T05:25:22.175Z,89.50
2019-03-10T05:27:53.160Z,90.10
2019-03-10T05:30:23.587Z,90.20
2019-03-10T05:32:54.285Z,90.30
2019-03-10T05:35:24.680Z,90.40
2019-03-10T05:37:55.340Z,90.60
2019-03-10T05:40:25.693Z,90.90
2019-03-10T05:42:56.616Z,90.50
2019-03-10T05:45:27.266Z,90.50
2019-03-10T05:47:58.163Z,90.90
2019-03-10T05:50:28.951Z,90.80
2019-03-10T05:53:00.809Z,91.10
2019-03-10T05:55:31.645Z,91.70
2019-03-10T05:58:02.148Z,91.70
2019-03-10T06:00:42.074Z,91.70
2019-03-10T06:03:05.069Z,91.50
2019-03-10T06:05:35.891Z,91.70
2019-03-10T06:08:06.241Z,91.80
2019-03-10T06:10:36.576Z,91.10
2019-03-10T06:13:07.496Z,91.10
2019-03-10T06:15:37.818Z,90.70
2019-03-10T06:18:13.458Z,90.50
2019-03-10T06:20:40.190Z,90.30
2019-03-10T06:23:10.870Z,90.20
2019-03-10T06:25:41.214Z,90.40
2019-03-10T06:28:12.047Z,90.00
2019-03-10T06:30:42.771Z,90.10
2019-03-10T06:33:13.107Z,90.30
2019-03-10T06:35:43.466Z,90.40
2019-03-10T06:38:13.809Z,90.70
2019-03-10T06:40:44.550Z,90.90
2019-03-10T06:43:15.306Z,91.00
2019-03-10T06:45:45.947Z,90.20
2019-03-10T06:48:16.573Z,90.50
2019-03-10T06:50:46.939Z,90.10
2019-03-10T06:53:17.302Z,89.00
2019-03-10T06:55:48.172Z,88.40
2019-03-10T06:58:18.941Z,87.50
2019-03-10T07:00:49.295Z,85.40
2019-03-10T07:03:19.877Z,83.80
2019-03-10T07:05:50.261Z,83.10
2019-03-10T07:08:20.905Z,82.00
2019-03-10T07:10:51.545Z,79.40
2019-03-10T07:13:22.018Z,77.40
2019-03-10T07:15:52.624Z,77.60
2019-03-10T07:18:23.037Z,76.50
2019-03-10T07:20:53.378Z,75.20
2019-03-10T07:23:24.438Z,75.10
2019-03-10T07:26:06.672Z,73.40
2019-03-10T07:28:38.903Z,75.10
2019-03-10T07:31:20.161Z,73.10
2019-03-10T07:33:52.149Z,73.10
2019-03-10T07:36:24.398Z,72.00
2019-03-10T07:38:56.689Z,71.20
2019-03-10T07:44:31.953Z,70.30
2019-03-10T07:47:03.939Z,68.70
2019-03-10T07:49:51.204Z,68.80
2019-03-10T07:52:26.480Z,68.60
2019-03-10T07:55:04.625Z,66.60
2019-03-10T07:57:42.785Z,65.30
2019-03-10T08:00:20.810Z,64.30
2019-03-10T08:02:53.069Z,64.50
2019-03-10T08:05:25.103Z,64.50
2019-03-10T08:07:57.117Z,63.00
2019-03-10T08:10:29.435Z,62.80
2019-03-10T08:13:18.018Z,61.30
2019-03-10T08:16:02.898Z,62.00
2019-03-10T08:18:41.641Z,59.90
2019-03-10T08:21:26.159Z,60.00
2019-03-10T08:23:58.460Z,59.10
2019-03-10T08:26:32.836Z,58.60
2019-03-10T08:29:22.043Z,57.30
2019-03-10T08:32:00.077Z,57.60
2019-03-10T08:34:35.396Z,57.10
2019-03-10T08:37:13.626Z,55.80
2019-03-10T08:39:45.631Z,55.00
2019-03-10T08:42:33.669Z,54.80
2019-03-10T08:45:16.145Z,54.50
2019-03-10T08:47:58.191Z,54.40
2019-03-10T08:50:33.514Z,54.40
2019-03-10T08:53:23.606Z,54.10
2019-03-10T08:55:55.950Z,53.20
2019-03-10T08:58:30.896Z,52.60
2019-03-10T09:01:06.337Z,53.00
2019-03-10T09:03:38.668Z,51.70
2019-03-10T09:06:10.705Z,52.60
2019-03-10T09:08:48.870Z,52.80
2019-03-10T09:11:21.190Z,51.90
2019-03-10T09:14:02.701Z,52.60
2019-03-10T09:16:35.034Z,51.80
2019-03-10T09:19:09.558Z,49.60
2019-03-10T09:21:53.645Z,49.70
2019-03-10T09:24:25.621Z,50.00
2019-03-10T09:27:13.774Z,50.10
2019-03-10T09:33:13.868Z,47.50
2019-03-10T09:36:02.631Z,46.90
2019-03-10T09:38:40.556Z,45.90
2019-03-10T09:41:30.696Z,46.30
2019-03-10T09:44:21.412Z,45.70
2019-03-10T09:46:59.380Z,45.30
2019-03-10T09:49:40.539Z,44.90
2019-03-10T09:52:12.549Z,44.50
2019-03-10T09:54:53.250Z,45.10
2019-03-10T09:57:25.281Z,45.10
2019-03-10T10:00:10.860Z,44.20
2019-03-10T10:02:49.280Z,45.10
2019-03-10T10:05:24.442Z,45.70
2019-03-10T10:07:59.345Z,45.60
2019-03-10T10:10:31.678Z,44.80
2019-03-10T10:13:20.477Z,45.00
2019-03-10T10:15:55.082Z,44.20
2019-03-10T10:24:15.121Z,44.80
2019-03-10T10:27:02.105Z,44.80
2019-03-10T10:29:34.131Z,45.80
2019-03-10T10:32:15.538Z,45.00
2019-03-10T10:34:50.287Z,45.70
2019-03-10T10:37:31.711Z,46.00
2019-03-10T10:40:06.497Z,46.00
2019-03-10T10:42:38.766Z,46.30
2019-03-10T10:45:30.074Z,46.80
2019-03-10T10:48:11.831Z,47.00
2019-03-10T10:51:00.429Z,47.00
2019-03-10T10:53:32.394Z,48.90
2019-03-10T10:56:22.678Z,51.60
2019-03-10T10:59:03.804Z,51.60
2019-03-10T11:01:41.816Z,53.80
2019-03-10T11:04:19.856Z,54.40
2019-03-10T11:06:52.254Z,55.90
2019-03-10T11:09:39.463Z,57.30
2019-03-10T11:12:23.942Z,57.20
2019-03-10T11:14:56.285Z,58.20
2019-03-10T11:17:31.252Z,57.80
2019-03-10T11:20:08.850Z,59.30
2019-03-10T11:22:53.199Z,61.80
2019-03-10T11:25:34.590Z,62.90
2019-03-10T11:28:09.824Z,64.50
2019-03-10T11:30:50.850Z,68.20
2019-03-10T11:33:29.330Z,70.30
2019-03-10T11:36:01.323Z,72.00
2019-03-10T11:38:39.385Z,73.20
2019-03-10T11:41:33.582Z,69.50
2019-03-10T11:44:01.132Z,70.50
2019-03-10T11:46:33.095Z,70.60
2019-03-10T11:49:11.000Z,68.90
2019-03-10T11:51:43.131Z,67.60
2019-03-10T11:54:17.738Z,68.10
2019-03-10T11:57:01.762Z,66.20
2019-03-10T11:59:39.736Z,61.20
2019-03-10T12:02:20.446Z,61.10
2019-03-10T12:04:55.050Z,62.60
2019-03-10T12:07:27.343Z,63.00
2019-03-10T12:09:58.033Z,65.30
2019-03-10T12:12:28.641Z,64.20
2019-03-10T12:14:59.248Z,65.20
2019-03-10T12:17:29.841Z,63.60
2019-03-10T12:20:00.917Z,63.60
2019-03-10T12:22:31.242Z,62.60
2019-03-10T12:25:01.876Z,62.80
2019-03-10T12:27:32.853Z,62.10
2019-03-10T12:30:04.412Z,60.60
2019-03-10T12:32:35.447Z,60.40
2019-03-10T12:35:07.019Z,62.20
2019-03-10T12:37:56.818Z,61.00
2019-03-10T12:40:27.166Z,61.10
2019-03-10T12:42:58.454Z,59.40
2019-03-10T12:45:28.801Z,62.20
2019-03-10T12:47:59.455Z,60.30
2019-03-10T12:50:29.769Z,59.30
2019-03-10T12:53:00.396Z,59.10
2019-03-10T12:55:30.758Z,58.30
2019-03-10T12:58:01.183Z,58.10
2019-03-10T13:00:31.999Z,60.10
2019-03-10T13:03:02.471Z,61.20
2019-03-10T13:05:32.808Z,63.30
2019-03-10T13:08:03.151Z,64.20
2019-03-10T13:10:33.521Z,66.40
2019-03-10T13:13:04.236Z,68.00
2019-03-10T13:15:34.565Z,69.60
2019-03-10T13:18:04.952Z,70.40
2019-03-10T13:20:35.846Z,72.60
2019-03-10T13:23:06.271Z,71.30
2019-03-10T13:25:36.690Z,72.80
2019-03-10T13:28:07.022Z,73.90
2019-03-10T13:30:56.838Z,73.30
2019-03-10T13:33:27.466Z,74.80
2019-03-10T13:35:57.767Z,77.00
2019-03-10T13:38:28.114Z,75.50
2019-03-10T13:40:58.446Z,76.60
2019-03-10T13:43:29.154Z,77.70
2019-03-10T13:45:59.626Z,78.20
2019-03-10T13:48:30.048Z,78.60
2019-03-10T13:51:00.475Z,80.10
2019-03-10T13:53:31.237Z,79.30
2019-03-10T13:56:01.571Z,78.40
2019-03-10T13:58:31.915Z,79.00
2019-03-10T14:01:03.299Z,78.90
2019-03-10T14:03:34.017Z,74.70
2019-03-10T14:06:04.363Z,73.70
2019-03-10T14:08:35.243Z,73.90
2019-03-10T14:11:25.653Z,75.50
2019-03-10T14:13:56.433Z,78.10
2019-03-10T14:16:27.113Z,80.80
2019-03-10T14:18:57.463Z,81.60
2019-03-10T14:21:27.896Z,79.30
2019-03-10T14:23:58.218Z,81.60
2019-03-10T14:26:28.574Z,81.80
2019-03-10T14:28:58.952Z,83.10
2019-03-10T14:31:29.604Z,84.30
2019-03-10T14:33:59.931Z,83.10
2019-03-10T14:36:30.576Z,81.90
2019-03-10T14:39:01.523Z,81.20
2019-03-10T14:41:32.165Z,81.30
2019-03-10T14:44:02.531Z,78.90
2019-03-10T14:46:33.150Z,81.70
2019-03-10T14:49:03.496Z,83.10
2019-03-10T14:51:33.873Z,80.90
2019-03-10T14:54:04.953Z,79.50
2019-03-10T14:56:35.543Z,78.70
2019-03-10T14:59:06.312Z,76.70
2019-03-10T15:01:36.724Z,81.80
2019-03-10T15:04:07.046Z,82.40
2019-03-10T15:06:38.544Z,82.00
2019-03-10T15:09:09.123Z,82.00
2019-03-10T15:11:39.737Z,82.50
2019-03-10T15:14:10.683Z,83.20
2019-03-10T15:16:41.027Z,83.30
2019-03-10T15:19:12.261Z,83.40
2019-03-10T15:21:42.855Z,84.00
2019-03-10T15:24:13.185Z,83.30
2019-03-10T15:26:46.023Z,83.20
2019-03-10T15:29:16.150Z,81.30
2019-03-10T15:31:47.186Z,80.20
2019-03-10T15:34:17.833Z,81.50
2019-03-10T15:36:48.681Z,81.70
2019-03-10T15:39:19.286Z,81.20
2019-03-10T15:41:49.982Z,82.80
2019-03-10T15:44:20.397Z,85.60
2019-03-10T15:46:51.107Z,87.30
2019-03-10T15:49:21.442Z,87.70
2019-03-10T15:51:51.790Z,89.50
2019-03-10T15:54:22.284Z,88.80
2019-03-10T15:56:52.924Z,86.10
2019-03-10T15:59:23.631Z,86.30
2019-03-10T16:01:54.250Z,86.60
2019-03-10T16:04:24.589Z,87.60
2019-03-10T16:06:55.560Z,89.10
2019-03-10T16:09:26.257Z,90.00
2019-03-10T16:11:56.916Z,91.20
2019-03-10T16:14:27.370Z,91.50
2019-03-10T16:16:57.692Z,91.90
2019-03-10T16:19:28.011Z,92.80
2019-03-10T16:21:58.746Z,92.80
2019-03-10T16:24:29.067Z,93.50
2019-03-10T16:26:59.404Z,93.70
2019-03-10T16:29:29.804Z,94.20
2019-03-10T16:32:00.413Z,94.40
2019-03-10T16:34:31.003Z,95.30
2019-03-10T16:37:01.705Z,97.40
2019-03-10T16:39:32.784Z,98.50
2019-03-10T16:42:03.421Z,99.40
2019-03-10T16:44:34.198Z,99.90
2019-03-10T16:47:04.878Z,99.90
2019-03-10T16:49:35.194Z,99.90
2019-03-10T16:52:05.825Z,99.90
2019-03-10T16:54:36.437Z,99.90
2019-03-10T16:57:07.211Z,99.90
2019-03-10T16:59:37.643Z,99.90
2019-03-10T17:02:08.377Z,99.90
2019-03-10T17:04:38.990Z,99.90
2019-03-10T17:07:09.340Z,99.90
2019-03-10T17:09:39.665Z,99.90
2019-03-10T17:12:10.384Z,99.90
2019-03-10T17:15:00.575Z,99.90
2019-03-10T17:17:31.243Z,99.90
2019-03-10T17:20:01.963Z,99.90
2019-03-10T17:22:32.691Z,99.90
2019-03-10T17:25:03.610Z,99.90
2019-03-10T17:27:34.242Z,99.90
2019-03-10T17:30:14.117Z,99.90
2019-03-10T17:32:44.466Z,99.90
2019-03-10T17:35:16.114Z,99.90
2019-03-10T17:37:48.432Z,99.90
2019-03-10T17:40:23.409Z,99.90
2019-03-10T17:42:54.251Z,99.90
2019-03-10T17:45:26.144Z,99.80
2019-03-10T17:47:56.731Z,99.50
2019-03-10T17:50:27.099Z,99.40
2019-03-10T17:52:58.040Z,99.60
2019-03-10T17:55:28.379Z,99.50
2019-03-10T17:57:59.070Z,99.90
2019-03-10T18:00:31.172Z,99.90
2019-03-10T18:03:01.467Z,99.90
2019-03-10T18:05:32.594Z,99.90
2019-03-10T18:08:02.952Z,99.90
2019-03-10T18:10:33.665Z,99.90
2019-03-10T18:13:04.047Z,99.90
2019-03-10T18:15:35.037Z,99.90
2019-03-10T18:18:05.760Z,99.90
2019-03-10T18:20:36.381Z,99.90
2019-03-10T18:23:08.265Z,99.90
2019-03-10T18:25:38.862Z,99.60
2019-03-10T18:28:09.663Z,99.60
2019-03-10T18:30:39.962Z,99.60
2019-03-10T18:33:11.105Z,99.90
2019-03-10T18:35:42.175Z,99.50
2019-03-10T18:38:13.553Z,99.50
2019-03-10T18:40:44.240Z,99.40
2019-03-10T18:43:14.976Z,99.40
2019-03-10T18:45:45.312Z,99.90
2019-03-10T18:48:15.652Z,99.90
2019-03-10T18:50:46.385Z,99.80
2019-03-10T18:53:17.421Z,99.90
2019-03-10T18:55:48.049Z,99.90
2019-03-10T18:58:18.409Z,99.90
2019-03-10T19:00:49.111Z,99.70
2019-03-10T19:04:08.225Z,99.80
2019-03-10T19:06:39.213Z,99.50
2019-03-10T19:09:09.571Z,99.90
2019-03-10T19:11:40.420Z,99.90
2019-03-10T19:14:11.230Z,99.90
2019-03-10T19:16:41.575Z,99.90
2019-03-10T19:19:12.956Z,99.90
2019-03-10T19:21:43.879Z,99.90
2019-03-10T19:24:14.218Z,99.90
2019-03-10T19:26:44.945Z,99.90
2019-03-10T19:29:15.959Z,99.90
2019-03-10T19:31:46.978Z,99.90
2019-03-10T19:34:17.613Z,99.90
2019-03-10T19:36:56.508Z,99.90
2019-03-10T19:39:20.276Z,99.90
2019-03-10T19:41:50.699Z,99.90
2019-03-10T19:44:21.557Z,99.90
2019-03-10T19:46:52.008Z,99.90
2019-03-10T19:49:22.748Z,99.90
2019-03-10T19:51:53.459Z,99.90
2019-03-10T19:54:23.806Z,99.90
2019-03-10T19:56:55.110Z,99.90
2019-03-10T19:59:25.450Z,99.90
2019-03-10T20:01:55.792Z,99.90
2019-03-10T20:04:26.129Z,99.90
2019-03-10T20:06:56.944Z,99.90
2019-03-10T20:09:27.826Z,99.90
2019-03-10T20:11:58.719Z,99.90
2019-03-10T20:14:29.293Z,99.90
2019-03-10T20:16:59.931Z,99.90
2019-03-10T20:19:30.376Z,99.90
2019-03-10T20:22:01.080Z,99.90
2019-03-10T20:24:31.764Z,99.90
2019-03-10T20:27:02.440Z,99.90
2019-03-10T20:29:33.312Z,99.90
2019-03-10T20:32:13.410Z,99.90
2019-03-10T20:34:36.419Z,99.90
2019-03-10T20:37:06.897Z,99.90
2019-03-10T20:39:37.253Z,99.90
2019-03-10T20:42:08.527Z,99.90
2019-03-10T20:44:39.462Z,99.90
2019-03-10T20:47:10.344Z,99.90
2019-03-10T20:49:41.036Z,99.90
2019-03-10T20:52:12.100Z,99.90
2019-03-10T20:54:42.758Z,99.90
2019-03-10T20:57:13.157Z,99.90
2019-03-10T20:59:43.900Z,99.90
2019-03-10T21:02:14.864Z,99.90
2019-03-10T21:04:45.230Z,99.90
2019-03-10T21:07:15.570Z,99.90
2019-03-10T21:09:46.667Z,99.90
2019-03-10T21:12:17.580Z,99.90
2019-03-10T21:14:47.912Z,99.90
2019-03-10T21:17:18.693Z,99.90
2019-03-10T21:19:49.043Z,99.90
2019-03-10T21:22:20.982Z,99.90
2019-03-10T21:24:51.476Z,99.90
2019-03-10T21:27:21.870Z,99.90
2019-03-10T21:29:52.184Z,99.90
2019-03-10T21:32:22.539Z,99.90
2019-03-10T21:34:52.888Z,99.90
2019-03-10T21:37:23.812Z,99.90
2019-03-10T21:39:54.592Z,99.90
2019-03-10T21:42:25.223Z,99.90
2019-03-10T21:44:55.936Z,99.90
2019-03-10T21:47:26.265Z,99.90
2019-03-10T21:49:56.608Z,99.90
2019-03-10T21:52:27.215Z,99.90
2019-03-10T21:54:57.543Z,99.90
2019-03-10T21:57:28.331Z,99.90
2019-03-10T21:59:59.010Z,99.90
2019-03-10T22:02:29.622Z,99.90
2019-03-10T22:04:59.986Z,99.90
2019-03-10T22:07:30.319Z,99.90
2019-03-10T22:10:01.014Z,99.90
2019-03-10T22:12:31.769Z,99.90
2019-03-10T22:15:02.356Z,99.90
2019-03-10T22:17:32.693Z,99.90
2019-03-10T22:20:03.524Z,99.90
2019-03-10T22:22:35.849Z,99.90
2019-03-10T22:25:12.782Z,99.90
2019-03-10T22:27:38.645Z,99.90
2019-03-10T22:30:23.370Z,99.90
2019-03-10T22:32:53.709Z,99.90
2019-03-10T22:35:24.179Z,99.90
2019-03-10T22:38:15.435Z,99.90
2019-03-10T22:40:46.432Z,99.90
2019-03-10T22:43:16.836Z,99.90
2019-03-10T22:45:47.903Z,99.90
2019-03-10T22:48:18.512Z,99.90
2019-03-10T22:50:49.151Z,99.90
2019-03-10T22:53:19.887Z,99.90
2019-03-10T22:55:50.533Z,99.90
2019-03-10T22:58:21.184Z,99.90
2019-03-10T23:00:53.895Z,99.90
2019-03-10T23:03:24.729Z,99.90
2019-03-10T23:05:55.536Z,99.90
2019-03-10T23:08:25.916Z,99.90
2019-03-10T23:10:56.652Z,99.90
2019-03-10T23:13:27.340Z,99.90
2019-03-10T23:15:57.757Z,99.90
2019-03-10T23:18:28.475Z,99.90
2019-03-10T23:20:59.560Z,99.90
2019-03-10T23:23:30.493Z,99.90
2019-03-10T23:26:01.210Z,99.90
2019-03-10T23:28:32.166Z,99.90
2019-03-10T23:31:02.775Z,99.90
2019-03-10T23:33:52.800Z,99.90
2019-03-10T23:36:23.209Z,99.90
2019-03-10T23:38:53.558Z,99.90
2019-03-10T23:41:24.283Z,99.90
2019-03-10T23:43:54.673Z,99.90
2019-03-10T23:46:25.279Z,99.90
2019-03-10T23:48:55.943Z,99.90
2019-03-10T23:51:26.364Z,99.90
2019-03-10T23:53:56.707Z,99.90
2019-03-10T23:56:27.036Z,99.80
2019-03-10T23:58:57.409Z,99.80
